sensor_id;sensor_type;location;lat;lon;timestamp;temperature;humidity
6520;DHT22;3293;51.690;5.982;2024-02-26T00:03:45;6.60;99.90
6520;DHT22;3293;51.690;5.982;2024-02-26T00:08:46;6.60;99.90
6520;DHT22;3293;51.690;5.982;2024-02-26T00:13:46;6.60;99.90
6520;DHT22;3293;51.690;5.982;2024-02-26T00:18:46;6.60;99.90
6520;DHT22;3293;51.690;5.982;2024-02-26T00:23:46;6.60;99.90
6520;DHT22;3293;51.690;5.982;2024-02-26T00:28:46;6.60;99.90
6520;DHT22;3293;51.690;5.982;2024-02-26T00:33:46;6.60;99.90
6520;DHT22;3293;51.690;5.982;2024-02-26T00:38:46;6.60;99.90
6520;DHT22;3293;51.690;5.982;2024-02-26T00:43:50;6.60;99.90
6520;DHT22;3293;51.690;5.982;2024-02-26T00:48:50;6.60;99.90
6520;DHT22;3293;51.690;5.982;2024-02-26T00:53:50;6.60;99.90
6520;DHT22;3293;51.690;5.982;2024-02-26T00:58:50;6.70;99.90
6520;DHT22;3293;51.690;5.982;2024-02-26T01:03:49;6.60;99.90
6520;DHT22;3293;51.690;5.982;2024-02-26T01:08:49;6.60;99.90
6520;DHT22;3293;51.690;5.982;2024-02-26T01:13:50;6.60;99.90
6520;DHT22;3293;51.690;5.982;2024-02-26T01:18:55;6.50;99.90
6520;DHT22;3293;51.690;5.982;2024-02-26T01:23:55;6.50;99.90
6520;DHT22;3293;51.690;5.982;2024-02-26T01:28:55;6.50;99.90
6520;DHT22;3293;51.690;5.982;2024-02-26T01:33:55;6.40;99.90
6520;DHT22;3293;51.690;5.982;2024-02-26T01:38:55;6.40;99.90
6520;DHT22;3293;51.690;5.982;2024-02-26T01:43:55;6.40;99.90
6520;DHT22;3293;51.690;5.982;2024-02-26T01:48:55;6.40;99.90
6520;DHT22;3293;51.690;5.982;2024-02-26T01:53:55;6.40;99.90
6520;DHT22;3293;51.690;5.982;2024-02-26T01:58:56;6.30;99.90
6520;DHT22;3293;51.690;5.982;2024-02-26T02:03:58;6.20;99.90
6520;DHT22;3293;51.690;5.982;2024-02-26T02:08:58;6.20;99.90
6520;DHT22;3293;51.690;5.982;2024-02-26T02:13:58;6.10;99.90
6520;DHT22;3293;51.690;5.982;2024-02-26T02:18:58;5.90;99.90
6520;DHT22;3293;51.690;5.982;2024-02-26T02:23:59;5.90;99.90
6520;DHT22;3293;51.690;5.982;2024-02-26T02:28:59;5.80;99.90
6520;DHT22;3293;51.690;5.982;2024-02-26T02:34:00;5.70;99.90
6520;DHT22;3293;51.690;5.982;2024-02-26T02:39:00;5.70;99.90
6520;DHT22;3293;51.690;5.982;2024-02-26T02:44:00;5.60;99.90
6520;DHT22;3293;51.690;5.982;2024-02-26T02:49:00;5.60;99.90
6520;DHT22;3293;51.690;5.982;2024-02-26T02:53:59;5.50;99.90
6520;DHT22;3293;51.690;5.982;2024-02-26T02:58:59;5.40;99.90
6520;DHT22;3293;51.690;5.982;2024-02-26T03:03:59;5.30;99.90
6520;DHT22;3293;51.690;5.982;2024-02-26T03:08:59;5.30;99.90
6520;DHT22;3293;51.690;5.982;2024-02-26T03:14:00;5.30;99.90
6520;DHT22;3293;51.690;5.982;2024-02-26T03:19:00;5.30;99.90
6520;DHT22;3293;51.690;5.982;2024-02-26T03:24:00;5.20;99.90
6520;DHT22;3293;51.690;5.982;2024-02-26T03:29:00;5.20;99.90
6520;DHT22;3293;51.690;5.982;2024-02-26T03:34:02;5.20;99.90
6520;DHT22;3293;51.690;5.982;2024-02-26T03:39:02;5.20;99.90
6520;DHT22;3293;51.690;5.982;2024-02-26T03:44:04;5.20;99.90
6520;DHT22;3293;51.690;5.982;2024-02-26T03:49:04;5.20;99.90
6520;DHT22;3293;51.690;5.982;2024-02-26T03:54:04;5.10;99.90
6520;DHT22;3293;51.690;5.982;2024-02-26T03:59:04;5.20;99.90
6520;DHT22;3293;51.690;5.982;2024-02-26T04:04:04;5.20;99.90
6520;DHT22;3293;51.690;5.982;2024-02-26T04:09:04;5.20;99.90
6520;DHT22;3293;51.690;5.982;2024-02-26T04:14:04;5.20;99.90
6520;DHT22;3293;51.690;5.982;2024-02-26T04:19:05;5.20;99.90
6520;DHT22;3293;51.690;5.982;2024-02-26T04:24:06;5.20;99.90
6520;DHT22;3293;51.690;5.982;2024-02-26T04:29:06;5.20;99.90
6520;DHT22;3293;51.690;5.982;2024-02-26T04:34:06;5.20;99.90
6520;DHT22;3293;51.690;5.982;2024-02-26T04:39:06;5.10;99.90
6520;DHT22;3293;51.690;5.982;2024-02-26T04:44:06;5.20;99.90
6520;DHT22;3293;51.690;5.982;2024-02-26T04:49:06;5.20;99.90
6520;DHT22;3293;51.690;5.982;2024-02-26T04:54:06;5.10;99.90
6520;DHT22;3293;51.690;5.982;2024-02-26T04:59:06;5.20;99.90
6520;DHT22;3293;51.690;5.982;2024-02-26T05:04:06;5.20;99.90
6520;DHT22;3293;51.690;5.982;2024-02-26T05:09:06;5.20;99.90
6520;DHT22;3293;51.690;5.982;2024-02-26T05:14:06;5.20;99.90
6520;DHT22;3293;51.690;5.982;2024-02-26T05:19:06;5.20;99.90
6520;DHT22;3293;51.690;5.982;2024-02-26T05:24:06;5.20;99.90
6520;DHT22;3293;51.690;5.982;2024-02-26T05:29:06;5.30;99.90
6520;DHT22;3293;51.690;5.982;2024-02-26T05:34:06;5.20;99.90
6520;DHT22;3293;51.690;5.982;2024-02-26T05:39:06;5.20;99.90
6520;DHT22;3293;51.690;5.982;2024-02-26T05:44:06;5.20;99.90
6520;DHT22;3293;51.690;5.982;2024-02-26T05:49:09;5.30;99.90
6520;DHT22;3293;51.690;5.982;2024-02-26T05:54:09;5.20;99.90
6520;DHT22;3293;51.690;5.982;2024-02-26T05:59:09;5.20;99.90
6520;DHT22;3293;51.690;5.982;2024-02-26T06:04:09;5.10;99.90
6520;DHT22;3293;51.690;5.982;2024-02-26T06:09:09;5.10;99.90
6520;DHT22;3293;51.690;5.982;2024-02-26T06:14:10;5.20;99.90
6520;DHT22;3293;51.690;5.982;2024-02-26T06:19:11;5.10;99.90
6520;DHT22;3293;51.690;5.982;2024-02-26T06:24:11;5.10;99.90
6520;DHT22;3293;51.690;5.982;2024-02-26T06:29:10;5.10;99.90
6520;DHT22;3293;51.690;5.982;2024-02-26T06:34:10;5.00;99.90
6520;DHT22;3293;51.690;5.982;2024-02-26T06:39:11;5.00;99.90
6520;DHT22;3293;51.690;5.982;2024-02-26T06:44:13;5.00;99.90
6520;DHT22;3293;51.690;5.982;2024-02-26T06:49:13;5.00;99.90
6520;DHT22;3293;51.690;5.982;2024-02-26T06:54:13;4.90;99.90
6520;DHT22;3293;51.690;5.982;2024-02-26T06:59:13;4.90;99.90
6520;DHT22;3293;51.690;5.982;2024-02-26T07:04:13;4.90;99.90
6520;DHT22;3293;51.690;5.982;2024-02-26T07:09:13;4.90;99.90
6520;DHT22;3293;51.690;5.982;2024-02-26T07:14:14;4.90;99.90
6520;DHT22;3293;51.690;5.982;2024-02-26T07:19:13;4.90;99.90
6520;DHT22;3293;51.690;5.982;2024-02-26T07:24:13;5.00;99.90
6520;DHT22;3293;51.690;5.982;2024-02-26T07:29:14;5.00;99.90
6520;DHT22;3293;51.690;5.982;2024-02-26T07:34:14;5.00;99.90
6520;DHT22;3293;51.690;5.982;2024-02-26T07:39:13;5.00;99.90
6520;DHT22;3293;51.690;5.982;2024-02-26T07:44:13;5.00;99.90
6520;DHT22;3293;51.690;5.982;2024-02-26T07:49:13;5.00;99.90
6520;DHT22;3293;51.690;5.982;2024-02-26T07:54:13;5.00;99.90
6520;DHT22;3293;51.690;5.982;2024-02-26T07:59:15;5.10;99.90
6520;DHT22;3293;51.690;5.982;2024-02-26T08:04:15;5.10;99.90
6520;DHT22;3293;51.690;5.982;2024-02-26T08:09:15;5.10;99.90
6520;DHT22;3293;51.690;5.982;2024-02-26T08:14:15;5.10;99.90
6520;DHT22;3293;51.690;5.982;2024-02-26T08:19:15;5.00;99.90
6520;DHT22;3293;51.690;5.982;2024-02-26T08:24:17;5.10;99.90
6520;DHT22;3293;51.690;5.982;2024-02-26T08:29:17;5.10;99.90
6520;DHT22;3293;51.690;5.982;2024-02-26T08:34:17;5.10;99.90
6520;DHT22;3293;51.690;5.982;2024-02-26T08:39:17;5.10;99.90
6520;DHT22;3293;51.690;5.982;2024-02-26T08:44:17;5.10;99.90
6520;DHT22;3293;51.690;5.982;2024-02-26T08:49:17;5.10;99.90
6520;DHT22;3293;51.690;5.982;2024-02-26T08:54:17;5.00;99.90
6520;DHT22;3293;51.690;5.982;2024-02-26T08:59:18;5.10;99.90
6520;DHT22;3293;51.690;5.982;2024-02-26T09:04:22;5.10;99.90
6520;DHT22;3293;51.690;5.982;2024-02-26T09:09:22;5.20;99.90
6520;DHT22;3293;51.690;5.982;2024-02-26T09:14:22;5.10;99.90
6520;DHT22;3293;51.690;5.982;2024-02-26T09:19:22;5.20;99.90
6520;DHT22;3293;51.690;5.982;2024-02-26T09:24:23;5.20;99.90
6520;DHT22;3293;51.690;5.982;2024-02-26T09:29:22;5.20;99.90
6520;DHT22;3293;51.690;5.982;2024-02-26T09:34:22;5.30;99.90
6520;DHT22;3293;51.690;5.982;2024-02-26T09:39:22;5.30;99.90
6520;DHT22;3293;51.690;5.982;2024-02-26T09:44:22;5.40;99.90
6520;DHT22;3293;51.690;5.982;2024-02-26T09:49:24;5.40;99.90
6520;DHT22;3293;51.690;5.982;2024-02-26T09:54:25;5.40;99.90
6520;DHT22;3293;51.690;5.982;2024-02-26T09:59:29;5.40;99.90
6520;DHT22;3293;51.690;5.982;2024-02-26T10:04:34;5.30;99.90
6520;DHT22;3293;51.690;5.982;2024-02-26T10:09:34;5.40;99.90
6520;DHT22;3293;51.690;5.982;2024-02-26T10:14:34;5.40;99.90
6520;DHT22;3293;51.690;5.982;2024-02-26T10:19:34;5.50;99.90
6520;DHT22;3293;51.690;5.982;2024-02-26T10:24:34;5.50;99.90
6520;DHT22;3293;51.690;5.982;2024-02-26T10:29:34;5.50;99.90
6520;DHT22;3293;51.690;5.982;2024-02-26T10:34:35;5.50;99.90
6520;DHT22;3293;51.690;5.982;2024-02-26T10:39:37;5.50;99.90
6520;DHT22;3293;51.690;5.982;2024-02-26T10:44:40;5.50;99.90
6520;DHT22;3293;51.690;5.982;2024-02-26T10:49:48;5.50;99.90
6520;DHT22;3293;51.690;5.982;2024-02-26T10:54:49;5.60;99.90
6520;DHT22;3293;51.690;5.982;2024-02-26T10:59:51;5.50;99.90
6520;DHT22;3293;51.690;5.982;2024-02-26T11:04:52;5.50;99.90
6520;DHT22;3293;51.690;5.982;2024-02-26T11:09:53;5.50;99.90
6520;DHT22;3293;51.690;5.982;2024-02-26T11:14:55;5.50;99.90
6520;DHT22;3293;51.690;5.982;2024-02-26T11:19:56;5.50;99.90
6520;DHT22;3293;51.690;5.982;2024-02-26T11:24:57;5.50;99.90
6520;DHT22;3293;51.690;5.982;2024-02-26T11:30:01;5.50;99.90
6520;DHT22;3293;51.690;5.982;2024-02-26T11:35:01;5.50;99.90
6520;DHT22;3293;51.690;5.982;2024-02-26T11:40:01;5.60;99.90
6520;DHT22;3293;51.690;5.982;2024-02-26T11:45:01;5.60;99.90
6520;DHT22;3293;51.690;5.982;2024-02-26T11:56:13;5.60;99.90
6520;DHT22;3293;51.690;5.982;2024-02-26T12:01:41;5.60;99.90
6520;DHT22;3293;51.690;5.982;2024-02-26T12:06:43;5.60;99.90
6520;DHT22;3293;51.690;5.982;2024-02-26T12:11:45;5.60;99.90
6520;DHT22;3293;51.690;5.982;2024-02-26T12:16:45;5.60;99.90
6520;DHT22;3293;51.690;5.982;2024-02-26T12:21:51;5.60;99.90
6520;DHT22;3293;51.690;5.982;2024-02-26T12:26:51;5.60;99.90
6520;DHT22;3293;51.690;5.982;2024-02-26T12:31:51;5.50;99.90
6520;DHT22;3293;51.690;5.982;2024-02-26T12:36:51;5.60;99.90
6520;DHT22;3293;51.690;5.982;2024-02-26T12:41:52;5.50;99.90
6520;DHT22;3293;51.690;5.982;2024-02-26T12:47:03;5.50;99.90
6520;DHT22;3293;51.690;5.982;2024-02-26T12:52:03;5.50;99.90
6520;DHT22;3293;51.690;5.982;2024-02-26T12:57:04;5.50;99.90
6520;DHT22;3293;51.690;5.982;2024-02-26T13:02:06;5.50;99.90
6520;DHT22;3293;51.690;5.982;2024-02-26T13:07:06;5.40;99.90
6520;DHT22;3293;51.690;5.982;2024-02-26T13:12:07;5.50;99.90
6520;DHT22;3293;51.690;5.982;2024-02-26T13:17:07;5.50;99.90
6520;DHT22;3293;51.690;5.982;2024-02-26T13:22:07;5.50;99.90
6520;DHT22;3293;51.690;5.982;2024-02-26T13:27:07;5.50;99.90
6520;DHT22;3293;51.690;5.982;2024-02-26T13:32:10;5.50;99.90
6520;DHT22;3293;51.690;5.982;2024-02-26T13:37:11;5.60;99.90
6520;DHT22;3293;51.690;5.982;2024-02-26T13:42:11;5.60;99.90
6520;DHT22;3293;51.690;5.982;2024-02-26T13:47:11;5.60;99.90
6520;DHT22;3293;51.690;5.982;2024-02-26T13:52:11;5.60;99.90
6520;DHT22;3293;51.690;5.982;2024-02-26T13:57:11;5.60;99.90
6520;DHT22;3293;51.690;5.982;2024-02-26T14:02:11;5.60;99.90
6520;DHT22;3293;51.690;5.982;2024-02-26T14:07:11;5.60;99.90
6520;DHT22;3293;51.690;5.982;2024-02-26T14:12:11;5.60;99.90
6520;DHT22;3293;51.690;5.982;2024-02-26T14:17:11;5.60;99.90
6520;DHT22;3293;51.690;5.982;2024-02-26T14:22:12;5.60;99.90
6520;DHT22;3293;51.690;5.982;2024-02-26T14:27:13;5.60;99.90
6520;DHT22;3293;51.690;5.982;2024-02-26T14:32:16;5.60;99.90
6520;DHT22;3293;51.690;5.982;2024-02-26T14:37:17;5.60;99.90
6520;DHT22;3293;51.690;5.982;2024-02-26T14:42:17;5.60;99.90
6520;DHT22;3293;51.690;5.982;2024-02-26T14:47:17;5.60;99.90
6520;DHT22;3293;51.690;5.982;2024-02-26T14:52:17;5.70;99.90
6520;DHT22;3293;51.690;5.982;2024-02-26T14:57:18;5.70;99.90
6520;DHT22;3293;51.690;5.982;2024-02-26T15:02:18;5.70;99.90
6520;DHT22;3293;51.690;5.982;2024-02-26T15:07:18;5.70;99.90
6520;DHT22;3293;51.690;5.982;2024-02-26T15:12:19;5.70;99.90
6520;DHT22;3293;51.690;5.982;2024-02-26T15:17:20;5.70;99.90
6520;DHT22;3293;51.690;5.982;2024-02-26T15:22:20;5.70;99.90
6520;DHT22;3293;51.690;5.982;2024-02-26T15:27:20;5.70;99.90
6520;DHT22;3293;51.690;5.982;2024-02-26T15:32:20;5.70;99.90
6520;DHT22;3293;51.690;5.982;2024-02-26T15:37:20;5.70;99.90
6520;DHT22;3293;51.690;5.982;2024-02-26T15:42:20;5.70;99.90
6520;DHT22;3293;51.690;5.982;2024-02-26T15:47:23;5.60;99.90
6520;DHT22;3293;51.690;5.982;2024-02-26T15:52:26;5.60;99.90
6520;DHT22;3293;51.690;5.982;2024-02-26T15:57:27;5.60;99.90
6520;DHT22;3293;51.690;5.982;2024-02-26T16:02:27;5.60;99.90
6520;DHT22;3293;51.690;5.982;2024-02-26T16:07:43;5.60;99.90
6520;DHT22;3293;51.690;5.982;2024-02-26T16:12:53;5.60;99.90
6520;DHT22;3293;51.690;5.982;2024-02-26T16:17:53;5.60;99.90
6520;DHT22;3293;51.690;5.982;2024-02-26T16:22:55;5.60;99.90
6520;DHT22;3293;51.690;5.982;2024-02-26T16:27:55;5.60;99.90
6520;DHT22;3293;51.690;5.982;2024-02-26T16:32:55;5.60;99.90
6520;DHT22;3293;51.690;5.982;2024-02-26T16:37:55;5.70;99.90
6520;DHT22;3293;51.690;5.982;2024-02-26T16:42:55;5.60;99.90
6520;DHT22;3293;51.690;5.982;2024-02-26T16:47:55;5.60;99.90
6520;DHT22;3293;51.690;5.982;2024-02-26T16:52:54;5.60;99.90
6520;DHT22;3293;51.690;5.982;2024-02-26T16:57:55;5.60;99.90
6520;DHT22;3293;51.690;5.982;2024-02-26T17:02:56;5.60;99.90
6520;DHT22;3293;51.690;5.982;2024-02-26T17:07:58;5.60;99.90
6520;DHT22;3293;51.690;5.982;2024-02-26T17:12:58;5.60;99.90
6520;DHT22;3293;51.690;5.982;2024-02-26T17:17:57;5.60;99.90
6520;DHT22;3293;51.690;5.982;2024-02-26T17:22:57;5.60;99.90
6520;DHT22;3293;51.690;5.982;2024-02-26T17:27:57;5.50;99.90
6520;DHT22;3293;51.690;5.982;2024-02-26T17:32:57;5.50;99.90
6520;DHT22;3293;51.690;5.982;2024-02-26T17:37:57;5.50;99.90
6520;DHT22;3293;51.690;5.982;2024-02-26T17:42:58;5.50;99.90
6520;DHT22;3293;51.690;5.982;2024-02-26T17:47:58;5.50;99.90
6520;DHT22;3293;51.690;5.982;2024-02-26T17:52:58;5.40;99.90
6520;DHT22;3293;51.690;5.982;2024-02-26T17:57:58;5.40;99.90
6520;DHT22;3293;51.690;5.982;2024-02-26T18:02:58;5.40;99.90
6520;DHT22;3293;51.690;5.982;2024-02-26T18:07:58;5.40;99.90
6520;DHT22;3293;51.690;5.982;2024-02-26T18:12:58;5.30;99.90
6520;DHT22;3293;51.690;5.982;2024-02-26T18:17:58;5.30;99.90
6520;DHT22;3293;51.690;5.982;2024-02-26T18:22:59;5.30;99.90
6520;DHT22;3293;51.690;5.982;2024-02-26T18:27:59;5.30;99.90
6520;DHT22;3293;51.690;5.982;2024-02-26T18:32:59;5.20;99.90
6520;DHT22;3293;51.690;5.982;2024-02-26T18:37:59;5.20;99.90
6520;DHT22;3293;51.690;5.982;2024-02-26T18:42:59;5.20;99.90
6520;DHT22;3293;51.690;5.982;2024-02-26T18:48:00;5.10;99.90
6520;DHT22;3293;51.690;5.982;2024-02-26T18:53:02;5.10;99.90
6520;DHT22;3293;51.690;5.982;2024-02-26T18:58:04;5.00;99.90
6520;DHT22;3293;51.690;5.982;2024-02-26T19:03:04;5.10;99.90
6520;DHT22;3293;51.690;5.982;2024-02-26T19:08:04;5.10;99.90
6520;DHT22;3293;51.690;5.982;2024-02-26T19:13:04;5.10;99.90
6520;DHT22;3293;51.690;5.982;2024-02-26T19:18:04;5.00;99.90
6520;DHT22;3293;51.690;5.982;2024-02-26T19:23:05;5.00;99.90
6520;DHT22;3293;51.690;5.982;2024-02-26T19:28:05;5.00;99.90
6520;DHT22;3293;51.690;5.982;2024-02-26T19:33:05;5.00;99.90
6520;DHT22;3293;51.690;5.982;2024-02-26T19:38:06;5.00;99.90
6520;DHT22;3293;51.690;5.982;2024-02-26T19:43:06;5.00;99.90
6520;DHT22;3293;51.690;5.982;2024-02-26T19:48:06;5.00;99.90
6520;DHT22;3293;51.690;5.982;2024-02-26T19:53:06;5.00;99.90
6520;DHT22;3293;51.690;5.982;2024-02-26T19:58:06;5.00;99.90
6520;DHT22;3293;51.690;5.982;2024-02-26T20:03:06;5.00;99.90
6520;DHT22;3293;51.690;5.982;2024-02-26T20:08:06;5.00;99.90
6520;DHT22;3293;51.690;5.982;2024-02-26T20:13:06;5.00;99.90
6520;DHT22;3293;51.690;5.982;2024-02-26T20:18:07;5.00;99.90
6520;DHT22;3293;51.690;5.982;2024-02-26T20:23:07;5.00;99.90
6520;DHT22;3293;51.690;5.982;2024-02-26T20:28:07;5.00;99.90
6520;DHT22;3293;51.690;5.982;2024-02-26T20:33:07;5.00;99.90
6520;DHT22;3293;51.690;5.982;2024-02-26T20:38:06;5.00;99.90
6520;DHT22;3293;51.690;5.982;2024-02-26T20:43:08;5.00;99.90
6520;DHT22;3293;51.690;5.982;2024-02-26T20:48:08;4.90;99.90
6520;DHT22;3293;51.690;5.982;2024-02-26T20:53:08;4.90;99.90
6520;DHT22;3293;51.690;5.982;2024-02-26T20:58:08;4.90;99.90
6520;DHT22;3293;51.690;5.982;2024-02-26T21:03:08;4.90;99.90
6520;DHT22;3293;51.690;5.982;2024-02-26T21:08:10;4.90;99.90
6520;DHT22;3293;51.690;5.982;2024-02-26T21:13:10;4.80;99.90
6520;DHT22;3293;51.690;5.982;2024-02-26T21:18:09;4.80;99.90
6520;DHT22;3293;51.690;5.982;2024-02-26T21:23:10;4.80;99.90
6520;DHT22;3293;51.690;5.982;2024-02-26T21:28:10;4.80;99.90
6520;DHT22;3293;51.690;5.982;2024-02-26T21:33:09;4.90;99.90
6520;DHT22;3293;51.690;5.982;2024-02-26T21:38:10;4.80;99.90
6520;DHT22;3293;51.690;5.982;2024-02-26T21:43:09;4.90;99.90
6520;DHT22;3293;51.690;5.982;2024-02-26T21:48:09;4.80;99.90
6520;DHT22;3293;51.690;5.982;2024-02-26T21:53:09;4.80;99.90
6520;DHT22;3293;51.690;5.982;2024-02-26T21:58:09;4.80;99.90
6520;DHT22;3293;51.690;5.982;2024-02-26T22:03:09;4.80;99.90
6520;DHT22;3293;51.690;5.982;2024-02-26T22:08:09;4.80;99.90
6520;DHT22;3293;51.690;5.982;2024-02-26T22:13:09;4.80;99.90
6520;DHT22;3293;51.690;5.982;2024-02-26T22:18:08;4.80;99.90
6520;DHT22;3293;51.690;5.982;2024-02-26T22:23:08;4.80;99.90
6520;DHT22;3293;51.690;5.982;2024-02-26T22:28:08;4.80;99.90
6520;DHT22;3293;51.690;5.982;2024-02-26T22:33:08;4.80;99.90
6520;DHT22;3293;51.690;5.982;2024-02-26T22:38:09;4.80;99.90
6520;DHT22;3293;51.690;5.982;2024-02-26T22:43:10;4.70;99.90
6520;DHT22;3293;51.690;5.982;2024-02-26T22:48:10;4.80;99.90
6520;DHT22;3293;51.690;5.982;2024-02-26T22:53:10;4.80;99.90
6520;DHT22;3293;51.690;5.982;2024-02-26T22:58:11;4.80;99.90
6520;DHT22;3293;51.690;5.982;2024-02-26T23:03:13;4.70;99.90
6520;DHT22;3293;51.690;5.982;2024-02-26T23:08:15;4.70;99.90
6520;DHT22;3293;51.690;5.982;2024-02-26T23:13:14;4.70;99.90
6520;DHT22;3293;51.690;5.982;2024-02-26T23:18:15;4.60;99.90
6520;DHT22;3293;51.690;5.982;2024-02-26T23:23:15;4.60;99.90
6520;DHT22;3293;51.690;5.982;2024-02-26T23:28:15;4.50;99.90
6520;DHT22;3293;51.690;5.982;2024-02-26T23:33:15;4.50;99.90
6520;DHT22;3293;51.690;5.982;2024-02-26T23:38:14;4.40;99.90
6520;DHT22;3293;51.690;5.982;2024-02-26T23:43:14;4.30;99.90
6520;DHT22;3293;51.690;5.982;2024-02-26T23:48:14;4.40;99.90
6520;DHT22;3293;51.690;5.982;2024-02-26T23:53:14;4.30;99.90
6520;DHT22;3293;51.690;5.982;2024-02-26T23:58:14;4.40;99.90
